Time;durP1;ratioP1;P1;durP2;ratioP2;P2;SDS_P1;SDS_P2;PMS_P1;PMS_P2;Temp;Humidity;BMP_temperature;BMP_pressure;BME280_temperature;BME280_humidity;BME280_pressure;Samples;Min_cycle;Max_cycle;Signal;HPM_P1;HPM_P2
2023/07/12 00:01:29;;;;;;;4.38;2.83;;;24.40;79.40;;;;;;4997355;28;20223;-66
2023/07/12 00:03:57;;;;;;;3.53;2.55;;;24.30;80.60;;;;;;4998881;28;20679;-66
2023/07/12 00:06:36;;;;;;;6.82;3.58;;;24.20;82.60;;;;;;4990741;28;20227;-66
2023/07/12 00:09:14;;;;;;;5.47;2.78;;;24.20;82.90;;;;;;4999904;28;20228;-68
2023/07/12 00:11:41;;;;;;;8.20;3.92;;;24.20;84.90;;;;;;5003717;28;20829;-69
2023/07/12 00:14:09;;;;;;;8.38;3.15;;;24.30;84.00;;;;;;5004787;28;20208;-69
2023/07/12 00:16:40;;;;;;;7.05;3.47;;;24.30;85.40;;;;;;4999509;28;20243;-69
2023/07/12 00:19:14;;;;;;;4.65;3.10;;;24.40;84.60;;;;;;4998966;28;20730;-68
2023/07/12 00:21:41;;;;;;;4.45;3.03;;;24.30;85.20;;;;;;4985719;28;20240;-69
2023/07/12 00:24:09;;;;;;;5.95;2.35;;;24.20;85.20;;;;;;5000812;28;20841;-66
2023/07/12 00:26:37;;;;;;;4.32;2.20;;;24.10;84.60;;;;;;5004439;28;20201;-67
2023/07/12 00:29:06;;;;;;;3.35;2.20;;;24.00;88.80;;;;;;5002149;28;20201;-66
2023/07/12 00:31:36;;;;;;;4.75;2.63;;;24.00;87.80;;;;;;5002357;28;20201;-67
2023/07/12 00:34:03;;;;;;;4.85;2.33;;;23.90;88.70;;;;;;5002490;28;20703;-66
2023/07/12 00:36:34;;;;;;;6.72;2.88;;;23.80;90.00;;;;;;5000026;28;20200;-67
2023/07/12 00:39:03;;;;;;;4.43;2.35;;;23.90;91.20;;;;;;5005060;28;20734;-66
2023/07/12 00:42:13;;;;;;;4.38;2.88;;;23.90;90.70;;;;;;5002962;28;20217;-71
2023/07/12 00:44:48;;;;;;;2.97;2.15;;;23.60;91.20;;;;;;5007622;28;20212;-71
2023/07/12 00:47:15;;;;;;;6.97;3.92;;;23.70;91.50;;;;;;5002681;28;20201;-70
2023/07/12 00:49:47;;;;;;;7.00;2.97;;;23.40;91.90;;;;;;5008872;28;20213;-69
2023/07/12 00:52:19;;;;;;;8.00;3.20;;;23.40;93.50;;;;;;5004410;28;20201;-72
2023/07/12 00:55:01;;;;;;;6.90;2.92;;;23.30;94.20;;;;;;5001965;28;20291;-69
2023/07/12 00:57:31;;;;;;;7.07;3.38;;;23.40;94.10;;;;;;5011487;28;20829;-70
2023/07/12 01:00:01;;;;;;;6.35;3.50;;;23.40;93.60;;;;;;5000680;28;20714;-70
2023/07/12 01:02:29;;;;;;;7.78;4.47;;;23.30;94.80;;;;;;5012465;28;20219;-70
2023/07/12 01:04:59;;;;;;;7.85;3.95;;;23.40;95.20;;;;;;5000104;23;20348;-72
2023/07/12 01:07:29;;;;;;;8.10;4.05;;;23.40;95.70;;;;;;5004331;28;20201;-72
2023/07/12 01:09:56;;;;;;;7.25;3.03;;;23.40;95.10;;;;;;5000604;28;20193;-71
2023/07/12 01:12:24;;;;;;;5.35;2.38;;;23.00;96.30;;;;;;5002326;28;20297;-71
2023/07/12 01:14:51;;;;;;;6.60;2.97;;;22.40;97.70;;;;;;5001743;28;20197;-70
2023/07/12 01:17:21;;;;;;;8.02;3.70;;;22.60;99.80;;;;;;5004298;28;20506;-70
2023/07/12 01:19:48;;;;;;;6.97;4.65;;;22.70;98.00;;;;;;5001235;28;20205;-72
2023/07/12 01:22:15;;;;;;;4.55;2.67;;;22.80;98.30;;;;;;4987375;28;20624;-70
2023/07/12 01:24:43;;;;;;;7.80;3.25;;;22.70;97.90;;;;;;5004860;28;20208;-71
2023/07/12 01:27:17;;;;;;;3.63;2.30;;;22.30;99.80;;;;;;5007262;28;21130;-71
2023/07/12 01:29:45;;;;;;;5.20;2.92;;;22.50;99.90;;;;;;5004587;28;20207;-70
2023/07/12 01:32:14;;;;;;;4.25;2.08;;;22.40;99.90;;;;;;5004955;28;20818;-70
2023/07/12 01:34:44;;;;;;;4.05;2.08;;;22.10;99.90;;;;;;5006187;28;20203;-70
2023/07/12 01:37:13;;;;;;;3.53;2.08;;;22.00;99.90;;;;;;5001484;28;20206;-71
2023/07/12 01:39:40;;;;;;;3.08;2.10;;;21.90;99.90;;;;;;5007485;28;20672;-70
2023/07/12 01:42:10;;;;;;;5.38;2.25;;;22.10;99.90;;;;;;5003715;28;20290;-70
2023/07/12 01:44:37;;;;;;;4.30;1.88;;;22.00;99.90;;;;;;5020091;28;20207;-70
2023/07/12 01:47:04;;;;;;;4.13;1.95;;;21.70;99.90;;;;;;5005867;28;20201;-69
2023/07/12 01:49:35;;;;;;;4.68;1.95;;;21.60;99.90;;;;;;4989823;28;20194;-71
2023/07/12 01:52:02;;;;;;;5.28;2.83;;;21.60;99.90;;;;;;5023116;28;20722;-71
2023/07/12 01:54:30;;;;;;;3.80;1.55;;;21.50;99.90;;;;;;5008405;28;20205;-70
2023/07/12 01:56:57;;;;;;;5.35;2.53;;;21.40;99.90;;;;;;5001402;28;20553;-71
2023/07/12 01:59:30;;;;;;;3.90;1.55;;;21.10;99.90;;;;;;5012094;28;20679;-75
